Cleo Springs, Oklahoma
Current Conditions -  °F | °C
As of 5:15 AM on Monday 22 Dec 2014 (Local Time) from KAVK Reporting Station
Moderate Fog Moderate Fog  
Wind Chill: 40°   Ceiling: 2000
Heat Index: 43°   Visibility: 0.5mi
Dew Point: 43°   Wind: 5mph
Humidity: 100%   Direction: 200°SSW
Pressure: 29.54"   Gusts: NA
Location:  36.41°N, 98.44°W
Report Text: KAVK 221115Z AUTO 20004KT 1/2SM FG OVC020 06/06 A2954 RMK AO2
Loading
Personal Weather Stations






























Interactive Weather Map New forecast layout! Learn more

10-Day Weather Forecast

Advertisements
Track Severe Weather on mobile